Time;durP1;ratioP1;P1;durP2;ratioP2;P2;SDS_P1;SDS_P2;PMS_P1;PMS_P2;Temp;Humidity;BMP_temperature;BMP_pressure;BME280_temperature;BME280_humidity;BME280_pressure;Samples;Min_cycle;Max_cycle;Signal;HPM_P1;HPM_P2
2024/01/07 00:01:11;;;;;;;9.55;3.67;;;;;;;2.12;50.08;101789.22;5033301;28;20052;-39
2024/01/07 00:03:39;;;;;;;7.00;3.95;;;;;;;1.78;50.14;101792.88;5043200;28;20033;-39
2024/01/07 00:06:05;;;;;;;16.05;5.18;;;;;;;1.88;50.79;101788.50;5040293;28;20041;-39
2024/01/07 00:08:30;;;;;;;10.38;4.00;;;;;;;1.90;51.29;101799.75;5033477;28;20021;-39
2024/01/07 00:10:56;;;;;;;9.18;3.85;;;;;;;1.93;50.80;101788.47;5045074;28;20076;-39
2024/01/07 00:13:21;;;;;;;13.30;5.25;;;;;;;1.98;50.56;101786.72;5038444;28;20035;-39
2024/01/07 00:15:46;;;;;;;10.43;4.03;;;;;;;2.08;50.71;101800.53;5038705;28;20032;-39
2024/01/07 00:18:12;;;;;;;9.10;3.90;;;;;;;2.22;50.15;101790.03;5027203;28;20403;-39
2024/01/07 00:20:38;;;;;;;10.27;4.90;;;;;;;2.25;50.18;101795.22;5041376;28;20041;-39
2024/01/07 00:23:03;;;;;;;15.90;4.53;;;;;;;2.31;50.05;101800.41;5037345;28;20029;-39
2024/01/07 00:25:28;;;;;;;13.60;3.75;;;;;;;2.35;50.94;101802.06;5038907;28;20033;-39
2024/01/07 00:27:55;;;;;;;11.20;4.45;;;;;;;2.39;50.27;101811.59;5032542;28;20116;-39
2024/01/07 00:30:21;;;;;;;9.48;3.28;;;;;;;2.40;50.23;101808.13;5035829;28;20028;-39
2024/01/07 00:32:46;;;;;;;14.13;4.22;;;;;;;2.34;50.23;101805.56;5034242;28;20036;-38
2024/01/07 00:35:12;;;;;;;9.68;4.30;;;;;;;2.33;50.51;101802.97;5039898;28;20246;-38
2024/01/07 00:37:37;;;;;;;8.90;4.57;;;;;;;2.34;50.83;101809.88;5036206;28;20504;-39
2024/01/07 00:40:04;;;;;;;6.07;2.13;;;;;;;2.30;50.95;101811.66;5035134;28;20126;-39
2024/01/07 00:42:30;;;;;;;7.63;3.65;;;;;;;2.34;50.58;101805.56;5041578;28;20032;-39
2024/01/07 00:44:56;;;;;;;9.40;3.47;;;;;;;2.39;50.92;101818.53;5033361;28;22607;-39
2024/01/07 00:47:21;;;;;;;8.07;4.00;;;;;;;2.39;50.93;101815.94;5040336;28;20973;-39
2024/01/07 00:49:47;;;;;;;7.70;3.15;;;;;;;2.40;50.39;101815.91;5042741;28;20040;-39
2024/01/07 00:52:12;;;;;;;11.80;4.13;;;;;;;2.49;50.46;101819.34;5038116;28;20159;-39
2024/01/07 00:54:37;;;;;;;8.25;3.78;;;;;;;2.54;50.42;101825.34;5041874;28;20081;-39
2024/01/07 00:57:03;;;;;;;7.20;3.00;;;;;;;2.59;50.77;101824.44;5037172;28;20488;-39
2024/01/07 00:59:29;;;;;;;7.22;2.50;;;;;;;2.57;50.52;101825.34;5037674;28;20102;-39
2024/01/07 01:01:55;;;;;;;10.57;3.75;;;;;;;2.65;50.77;101826.13;5038041;28;20935;-39
2024/01/07 01:04:21;;;;;;;8.73;3.95;;;;;;;2.64;51.02;101834.81;5040533;28;20083;-39
2024/01/07 01:06:46;;;;;;;9.55;3.22;;;;;;;2.55;50.49;101837.47;5039467;28;20032;-39
2024/01/07 01:09:12;;;;;;;6.53;3.90;;;;;;;2.68;50.79;101836.50;5039002;28;20049;-38
2024/01/07 01:11:37;;;;;;;8.07;3.05;;;;;;;2.60;50.73;101838.31;5037427;28;20109;-39
2024/01/07 01:14:03;;;;;;;4.50;2.30;;;;;;;2.58;50.37;101840.91;5037159;28;20040;-39
2024/01/07 01:16:28;;;;;;;9.93;3.75;;;;;;;2.64;49.93;101840.03;5042835;28;20692;-39
2024/01/07 01:18:53;;;;;;;9.57;3.63;;;;;;;2.73;49.98;101841.66;5043469;28;20106;-39
2024/01/07 01:21:19;;;;;;;9.25;2.83;;;;;;;2.68;49.94;101841.69;5042719;28;20044;-39
2024/01/07 01:23:44;;;;;;;7.45;3.50;;;;;;;2.77;49.96;101839.94;5039878;28;20116;-39
2024/01/07 01:26:09;;;;;;;7.15;3.03;;;;;;;2.82;49.41;101843.34;5035865;28;20094;-39
2024/01/07 01:28:35;;;;;;;3.47;2.17;;;;;;;2.85;49.20;101839.00;5034066;28;20108;-39
2024/01/07 01:31:00;;;;;;;5.18;2.25;;;;;;;2.92;49.67;101847.59;5036905;28;20058;-39
2024/01/07 01:33:25;;;;;;;8.35;3.08;;;;;;;2.89;49.42;101845.03;5020738;28;20120;-39
2024/01/07 01:35:51;;;;;;;8.60;3.55;;;;;;;2.88;49.63;101848.50;5039844;28;20044;-39
2024/01/07 01:38:16;;;;;;;7.82;3.33;;;;;;;2.81;49.75;101854.59;5039433;28;20033;-39
2024/01/07 01:40:42;;;;;;;7.50;3.15;;;;;;;2.68;49.26;101846.91;5035870;28;20155;-39
2024/01/07 01:43:07;;;;;;;7.97;3.80;;;;;;;2.68;49.57;101854.69;5039928;28;20406;-39
2024/01/07 01:45:33;;;;;;;8.27;3.45;;;;;;;2.77;49.54;101861.56;5034699;28;20048;-38
2024/01/07 01:47:59;;;;;;;4.47;2.67;;;;;;;2.66;49.05;101855.59;5040289;28;20374;-39
2024/01/07 01:50:25;;;;;;;11.45;3.10;;;;;;;2.72;49.95;101863.38;5043985;28;20067;-39
2024/01/07 01:52:50;;;;;;;8.88;3.50;;;;;;;2.87;49.56;101862.38;5034731;28;20075;-39
2024/01/07 01:55:16;;;;;;;10.38;3.78;;;;;;;2.78;49.98;101859.84;5034414;28;20036;-39
2024/01/07 01:57:44;;;;;;;10.60;3.42;;;;;;;2.88;49.69;101864.09;5037917;28;20045;-39
2024/01/07 02:00:10;;;;;;;5.25;2.78;;;;;;;2.78;49.84;101867.66;5037239;28;20064;-39
2024/01/07 02:02:35;;;;;;;6.70;2.38;;;;;;;2.85;50.11;101859.78;5039236;28;20124;-38
2024/01/07 02:05:02;;;;;;;11.40;3.95;;;;;;;2.97;49.99;101860.56;5038835;28;20104;-39
2024/01/07 02:07:28;;;;;;;9.50;3.58;;;;;;;3.03;49.13;101865.69;5038943;28;20064;-39
2024/01/07 02:09:53;;;;;;;6.15;3.00;;;;;;;3.08;49.41;101863.09;5040131;28;20051;-39
2024/01/07 02:12:19;;;;;;;5.28;2.55;;;;;;;3.06;49.37;101857.88;5038699;28;20127;-38
2024/01/07 02:14:44;;;;;;;6.35;2.58;;;;;;;3.10;49.34;101866.53;5042911;28;20491;-39
2024/01/07 02:17:09;;;;;;;8.55;3.60;;;;;;;3.18;49.13;101867.31;5039355;28;20033;-39
2024/01/07 02:19:35;;;;;;;8.68;3.38;;;;;;;3.17;49.50;101871.69;5043462;28;20040;-39
2024/01/07 02:22:00;;;;;;;7.28;3.45;;;;;;;3.14;49.95;101876.03;5039108;28;20029;-39
2024/01/07 02:24:26;;;;;;;10.27;3.78;;;;;;;3.25;50.00;101874.22;5042097;28;20033;-39
2024/01/07 02:26:51;;;;;;;11.18;4.30;;;;;;;3.34;50.04;101876.72;5020641;28;20483;-39
2024/01/07 02:29:16;;;;;;;11.55;4.70;;;;;;;3.35;49.79;101878.44;5040487;28;20032;-39
2024/01/07 02:31:42;;;;;;;8.45;3.97;;;;;;;3.39;49.99;101884.47;5039374;28;20029;-39
2024/01/07 02:34:09;;;;;;;6.03;3.33;;;;;;;3.50;49.82;101876.56;5038002;28;20434;-39
2024/01/07 02:36:35;;;;;;;11.93;3.50;;;;;;;3.49;49.89;101882.66;5036699;28;20025;-38
2024/01/07 02:39:00;;;;;;;10.65;3.70;;;;;;;3.49;49.66;101888.69;5041801;28;20041;-39
2024/01/07 02:41:26;;;;;;;9.43;2.90;;;;;;;3.48;49.94;101888.72;5036982;28;20033;-39
2024/01/07 02:43:52;;;;;;;11.85;3.60;;;;;;;3.41;49.98;101887.94;5041087;28;20646;-39
2024/01/07 02:46:17;;;;;;;6.95;3.13;;;;;;;3.05;49.90;101877.84;5035628;28;20043;-39
2024/01/07 02:48:43;;;;;;;9.23;3.70;;;;;;;3.20;50.00;101881.19;5039131;28;20029;-39
2024/01/07 02:51:08;;;;;;;6.25;2.72;;;;;;;3.25;49.93;101878.53;5041793;28;20123;-39
2024/01/07 02:53:34;;;;;;;8.85;3.72;;;;;;;3.33;50.10;101884.53;5045984;28;20608;-39
2024/01/07 02:56:00;;;;;;;8.18;4.22;;;;;;;3.43;50.31;101883.56;5042058;28;20557;-39
2024/01/07 02:58:25;;;;;;;11.77;3.65;;;;;;;3.23;49.48;101888.09;5043482;28;20032;-39
2024/01/07 03:00:51;;;;;;;7.30;3.72;;;;;;;3.30;50.29;101882.81;5034417;28;20037;-39
2024/01/07 03:03:16;;;;;;;6.72;3.35;;;;;;;3.14;50.12;101871.69;5040270;28;20025;-39
2024/01/07 03:05:41;;;;;;;4.57;2.80;;;;;;;3.29;50.36;101872.44;5025221;28;20046;-40
2024/01/07 03:08:07;;;;;;;7.28;4.13;;;;;;;3.26;50.27;101878.50;5038128;28;20032;-39
2024/01/07 03:10:33;;;;;;;5.30;3.30;;;;;;;3.28;50.37;101879.38;5041338;28;20074;-39
2024/01/07 03:12:59;;;;;;;7.25;3.53;;;;;;;3.37;50.17;101886.22;5044601;28;20397;-41
2024/01/07 03:15:24;;;;;;;8.77;3.08;;;;;;;3.24;49.78;101888.09;5038917;28;20037;-39
2024/01/07 03:17:50;;;;;;;8.40;3.58;;;;;;;3.32;49.93;101885.44;5041522;28;20127;-39
2024/01/07 03:20:15;;;;;;;9.20;3.95;;;;;;;3.17;49.79;101887.28;5042331;28;20060;-39
2024/01/07 03:22:40;;;;;;;9.05;3.80;;;;;;;3.30;50.35;101881.97;5041644;28;20494;-39
2024/01/07 03:25:07;;;;;;;9.13;3.35;;;;;;;3.43;50.01;101893.97;5043661;28;20095;-39
2024/01/07 03:27:32;;;;;;;6.57;3.47;;;;;;;3.50;50.29;101880.03;5037548;28;20115;-39
2024/01/07 03:29:57;;;;;;;8.00;3.58;;;;;;;3.38;50.00;101893.16;5038207;28;20031;-40
2024/01/07 03:32:23;;;;;;;6.90;3.60;;;;;;;3.54;50.14;101893.88;5020913;28;20025;-39
2024/01/07 03:34:48;;;;;;;5.65;2.72;;;;;;;3.58;50.17;101892.09;5039568;28;20087;-40
2024/01/07 03:37:13;;;;;;;7.32;3.53;;;;;;;3.66;50.26;101887.69;5041117;28;20116;-39
2024/01/07 03:39:39;;;;;;;7.85;3.53;;;;;;;3.57;49.99;101901.63;5036840;28;20033;-39
2024/01/07 03:42:11;;;;;;;63.10;25.55;;;;;;;3.62;50.35;101902.47;5044425;28;20423;-39
2024/01/07 03:44:36;;;;;;;20.10;8.25;;;;;;;3.69;50.33;101899.81;5043690;28;20513;-39
2024/01/07 03:47:01;;;;;;;13.30;6.55;;;;;;;3.75;50.58;101897.13;5040976;28;20025;-39
2024/01/07 03:49:27;;;;;;;7.68;4.10;;;;;;;3.75;50.23;101899.72;5040761;28;20535;-39
2024/01/07 03:51:52;;;;;;;7.60;2.67;;;;;;;3.77;49.94;101895.38;5021790;28;20158;-39
2024/01/07 03:54:17;;;;;;;6.22;2.75;;;;;;;3.66;50.05;101895.47;5037113;28;20037;-39
2024/01/07 03:56:43;;;;;;;12.40;5.13;;;;;;;3.75;50.09;101899.72;5037773;28;20033;-39
2024/01/07 03:59:08;;;;;;;6.40;3.90;;;;;;;3.80;50.24;101900.56;5018206;28;20037;-39
2024/01/07 04:01:33;;;;;;;5.05;3.28;;;;;;;3.79;49.65;101906.66;5040948;28;20029;-39
2024/01/07 04:03:59;;;;;;;8.90;4.10;;;;;;;3.80;49.83;101904.00;5043244;28;20032;-39
2024/01/07 04:06:24;;;;;;;8.63;4.03;;;;;;;3.85;49.87;101901.38;5041207;28;20504;-39
2024/01/07 04:08:50;;;;;;;8.77;3.80;;;;;;;3.89;49.90;101913.47;5041915;28;20083;-39
2024/01/07 04:11:15;;;;;;;5.53;3.10;;;;;;;3.94;49.88;101911.69;5041922;28;20041;-39
2024/01/07 04:13:40;;;;;;;9.38;3.60;;;;;;;3.93;49.80;101920.38;5041643;28;20057;-39
2024/01/07 04:16:14;;;;;;;9.70;4.13;;;;;;;3.96;49.89;101922.06;5037841;28;20025;-39
2024/01/07 04:18:40;;;;;;;8.75;4.20;;;;;;;3.96;50.54;101919.47;5042638;28;20037;-39
2024/01/07 04:21:09;;;;;;;10.18;3.95;;;;;;;4.03;50.39;101925.47;5040271;28;20080;-39
2024/01/07 04:23:34;;;;;;;8.50;3.70;;;;;;;3.99;50.38;101927.25;5041866;28;20037;-39
2024/01/07 04:26:00;;;;;;;7.90;3.33;;;;;;;4.01;50.55;101928.09;5041196;28;20130;-38
2024/01/07 04:28:25;;;;;;;9.52;4.53;;;;;;;3.96;50.61;101935.97;5042767;28;20039;-39
2024/01/07 04:30:50;;;;;;;6.70;3.45;;;;;;;4.01;50.64;101940.28;5038736;28;20033;-39
2024/01/07 04:33:16;;;;;;;7.53;3.13;;;;;;;3.87;49.85;101940.41;5038243;28;20064;-39
2024/01/07 04:35:41;;;;;;;7.88;3.90;;;;;;;3.90;50.21;101935.19;5037520;28;20171;-39
2024/01/07 04:38:08;;;;;;;10.82;3.78;;;;;;;3.83;49.88;101944.78;5042556;28;20056;-39
2024/01/07 04:40:33;;;;;;;7.82;3.65;;;;;;;3.87;50.42;101941.25;5038222;28;20029;-39
2024/01/07 04:42:59;;;;;;;8.20;3.80;;;;;;;3.96;50.07;101941.19;5037513;28;21761;-41
2024/01/07 04:45:25;;;;;;;5.50;3.15;;;;;;;3.99;50.30;101944.63;5039381;28;20036;-39
2024/01/07 04:47:50;;;;;;;9.30;3.65;;;;;;;4.04;50.06;101942.81;5040421;28;20040;-40
2024/01/07 04:50:19;;;;;;;10.02;3.38;;;;;;;3.91;49.42;101940.34;5042933;28;20178;-39
2024/01/07 04:52:45;;;;;;;7.47;3.58;;;;;;;3.96;49.94;101937.69;5036112;28;20033;-40
2024/01/07 04:55:10;;;;;;;5.72;3.35;;;;;;;3.87;50.00;101938.66;5039484;28;20021;-39
2024/01/07 04:57:36;;;;;;;9.43;3.90;;;;;;;3.87;50.50;101941.25;5040934;28;20029;-39
2024/01/07 05:00:02;;;;;;;12.23;4.07;;;;;;;3.88;49.74;101936.94;5043406;28;20032;-39
2024/01/07 05:02:27;;;;;;;10.27;4.88;;;;;;;3.93;50.26;101941.22;5036106;28;20369;-39
2024/01/07 05:04:53;;;;;;;5.88;2.50;;;;;;;4.00;50.08;101944.59;5040484;28;20044;-39
2024/01/07 05:07:18;;;;;;;8.27;4.05;;;;;;;4.03;50.14;101947.19;5046331;28;20060;-39
2024/01/07 05:09:44;;;;;;;8.02;3.92;;;;;;;4.01;50.08;101946.34;5039155;28;20060;-39
2024/01/07 05:12:09;;;;;;;11.52;3.90;;;;;;;3.93;50.08;101946.41;5045056;28;20029;-39
2024/01/07 05:14:34;;;;;;;4.85;3.13;;;;;;;4.01;50.44;101945.50;5040730;28;20427;-39
2024/01/07 05:17:00;;;;;;;12.00;3.47;;;;;;;3.95;49.94;101941.19;5037991;28;20037;-39
2024/01/07 05:19:25;;;;;;;7.30;3.08;;;;;;;4.01;50.22;101948.09;5038836;28;20028;-39
2024/01/07 05:21:50;;;;;;;12.15;4.30;;;;;;;3.84;49.75;101956.94;5046067;28;20057;-39
2024/01/07 05:24:16;;;;;;;7.40;3.10;;;;;;;3.84;49.95;101956.94;5040513;28;20490;-39
2024/01/07 05:26:43;;;;;;;4.95;2.92;;;;;;;3.93;49.87;101950.78;5040025;28;20059;-39
2024/01/07 05:29:08;;;;;;;11.88;4.45;;;;;;;3.91;49.62;101958.59;5038956;28;20030;-39
2024/01/07 05:31:34;;;;;;;7.88;3.65;;;;;;;3.93;49.69;101967.25;5039274;28;20040;-39
2024/01/07 05:33:59;;;;;;;9.48;2.92;;;;;;;3.90;49.89;101964.66;5038906;28;20040;-39
2024/01/07 05:36:25;;;;;;;10.65;4.50;;;;;;;3.93;49.83;101964.66;5042131;28;20036;-39
2024/01/07 05:38:50;;;;;;;8.00;3.05;;;;;;;3.95;49.76;101960.28;5038169;28;20040;-39
2024/01/07 05:41:15;;;;;;;5.70;3.60;;;;;;;3.95;50.02;101968.09;5041492;28;20059;-39
2024/01/07 05:43:41;;;;;;;8.57;2.88;;;;;;;3.94;49.97;101970.69;5041905;28;20025;-39
2024/01/07 05:46:06;;;;;;;6.32;3.42;;;;;;;4.00;50.05;101980.22;5038364;28;20488;-39
2024/01/07 05:48:42;;;;;;;9.07;3.38;;;;;;;4.09;49.69;101978.34;5040557;28;20025;-39
2024/01/07 05:51:07;;;;;;;10.23;3.55;;;;;;;3.87;48.87;101975.13;5039633;28;20395;-39
2024/01/07 05:53:32;;;;;;;6.82;2.90;;;;;;;3.89;49.99;101980.31;5037362;28;20036;-39
2024/01/07 05:55:59;;;;;;;22.30;7.10;;;;;;;3.93;49.67;101982.88;5042599;28;20431;-39
2024/01/07 05:58:25;;;;;;;9.00;4.07;;;;;;;3.90;50.86;101979.44;5042058;28;20037;-39
2024/01/07 06:00:50;;;;;;;6.68;3.20;;;;;;;3.86;50.49;101981.19;5038804;28;20044;-39
2024/01/07 06:03:16;;;;;;;8.32;3.67;;;;;;;3.86;50.12;101980.34;5038775;28;20032;-41
2024/01/07 06:05:41;;;;;;;7.28;2.90;;;;;;;3.92;49.94;101986.34;5040260;28;20493;-39
2024/01/07 06:08:06;;;;;;;4.93;2.97;;;;;;;3.81;50.29;101983.00;5042139;28;20036;-39
2024/01/07 06:10:32;;;;;;;5.63;2.72;;;;;;;3.32;49.54;101985.13;5041390;28;20040;-39
2024/01/07 06:12:57;;;;;;;8.18;3.13;;;;;;;3.70;50.91;101984.84;5040915;28;20035;-39
2024/01/07 06:15:22;;;;;;;7.78;3.22;;;;;;;3.73;51.06;101985.69;5019290;28;20045;-39
2024/01/07 06:17:48;;;;;;;5.13;2.30;;;;;;;3.82;50.96;101995.16;5036200;28;20037;-39
2024/01/07 06:20:14;;;;;;;5.25;2.45;;;;;;;3.87;50.59;101998.56;5040857;28;20035;-39
2024/01/07 06:22:39;;;;;;;4.47;2.55;;;;;;;3.91;50.25;101997.66;5036737;28;20601;-39
2024/01/07 06:25:05;;;;;;;9.05;3.38;;;;;;;3.88;50.16;102015.91;5019943;28;20534;-39
2024/01/07 06:27:30;;;;;;;4.70;2.20;;;;;;;3.66;49.07;102016.09;5041643;28;20033;-39
2024/01/07 06:29:56;;;;;;;6.65;2.67;;;;;;;3.49;49.95;102020.59;5027098;28;20491;-39
2024/01/07 06:32:21;;;;;;;5.82;2.65;;;;;;;3.36;48.85;102017.19;5044410;28;20116;-39
2024/01/07 06:34:47;;;;;;;6.13;2.63;;;;;;;3.31;49.28;102014.63;5036828;28;20128;-39
2024/01/07 06:37:12;;;;;;;6.45;2.70;;;;;;;2.98;49.55;102013.97;5045601;28;20090;-39
2024/01/07 06:39:37;;;;;;;12.45;3.40;;;;;;;3.03;50.25;102008.72;5044532;28;20499;-39
2024/01/07 06:42:04;;;;;;;8.55;3.70;;;;;;;3.22;50.58;102012.09;5043506;28;20059;-39
2024/01/07 06:44:29;;;;;;;8.38;3.83;;;;;;;3.39;50.66;102005.91;5039716;28;20040;-39
2024/01/07 06:46:54;;;;;;;12.40;6.15;;;;;;;3.50;50.53;102006.69;5040869;28;20029;-39
2024/01/07 06:49:20;;;;;;;8.98;3.88;;;;;;;3.60;51.00;102007.50;5041962;28;20033;-38
2024/01/07 06:51:45;;;;;;;6.95;2.63;;;;;;;3.66;50.62;102016.09;5043132;28;20125;-38
2024/01/07 06:54:11;;;;;;;9.13;3.38;;;;;;;3.74;50.49;102013.44;5040400;28;20053;-39
2024/01/07 06:56:36;;;;;;;9.30;3.72;;;;;;;3.83;50.55;102007.28;5025040;28;20029;-39
2024/01/07 06:59:02;;;;;;;6.78;3.47;;;;;;;3.66;49.54;102015.22;5045406;28;20043;-39
2024/01/07 07:01:27;;;;;;;6.25;2.72;;;;;;;3.60;49.87;102010.94;5044900;28;20032;-39
2024/01/07 07:03:53;;;;;;;7.22;3.35;;;;;;;3.61;50.20;102017.88;5041152;28;20554;-39
2024/01/07 07:06:18;;;;;;;4.88;2.53;;;;;;;3.66;50.42;102021.31;5043969;28;20037;-39
2024/01/07 07:08:43;;;;;;;7.65;3.03;;;;;;;3.75;49.99;102016.91;5042763;28;20376;-39
2024/01/07 07:11:09;;;;;;;5.75;3.05;;;;;;;3.83;49.88;102017.72;5044690;28;20124;-38
2024/01/07 07:13:34;;;;;;;7.60;3.13;;;;;;;3.79;49.59;102021.22;5047707;28;20598;-39
2024/01/07 07:16:00;;;;;;;6.35;3.85;;;;;;;3.80;49.72;102028.13;5040461;28;20116;-41
2024/01/07 07:18:26;;;;;;;8.98;2.65;;;;;;;3.89;49.81;102022.84;5040828;28;20078;-39
2024/01/07 07:20:51;;;;;;;7.30;3.90;;;;;;;3.93;49.95;102027.16;5040878;28;20083;-39
2024/01/07 07:23:17;;;;;;;8.05;3.53;;;;;;;3.97;49.81;102023.66;5023706;28;20567;-39
2024/01/07 07:25:42;;;;;;;4.90;3.08;;;;;;;4.00;49.97;102029.72;5046512;28;20507;-40
2024/01/07 07:28:07;;;;;;;7.75;3.95;;;;;;;3.99;50.91;102046.22;5023898;28;20547;-39
2024/01/07 07:30:33;;;;;;;10.25;3.60;;;;;;;3.82;50.34;102039.41;5039379;28;20095;-39
2024/01/07 07:32:58;;;;;;;8.43;3.88;;;;;;;3.89;50.64;102037.63;5040470;28;20046;-39
2024/01/07 07:35:24;;;;;;;6.22;3.50;;;;;;;3.81;49.69;102037.69;5038189;28;20031;-39
2024/01/07 07:37:49;;;;;;;5.25;3.00;;;;;;;3.68;49.74;102038.66;5041050;28;20032;-39
2024/01/07 07:40:14;;;;;;;6.72;3.08;;;;;;;3.71;50.11;102036.91;5042995;28;20044;-39
2024/01/07 07:42:40;;;;;;;10.13;3.72;;;;;;;3.55;50.05;102035.28;5044789;28;20045;-39
2024/01/07 07:45:06;;;;;;;10.98;3.58;;;;;;;3.41;49.50;102032.75;5043929;28;20541;-39
2024/01/07 07:47:31;;;;;;;5.65;3.10;;;;;;;3.49;50.20;102034.44;5039882;28;20028;-39
2024/01/07 07:49:57;;;;;;;6.65;3.78;;;;;;;3.57;50.37;102047.41;5037686;28;20055;-40
2024/01/07 07:52:25;;;;;;;7.50;3.70;;;;;;;3.65;49.90;102056.03;5043396;28;20120;-39
2024/01/07 07:54:51;;;;;;;6.75;3.63;;;;;;;3.66;49.90;102055.16;5036410;28;20123;-39
2024/01/07 07:57:17;;;;;;;10.18;4.30;;;;;;;3.62;49.82;102060.41;5042096;28;20083;-39
2024/01/07 07:59:42;;;;;;;9.23;3.40;;;;;;;3.32;49.96;102055.38;5042254;28;20147;-39
2024/01/07 08:02:08;;;;;;;7.30;3.22;;;;;;;3.33;50.03;102051.91;5041914;28;20074;-39
2024/01/07 08:04:33;;;;;;;12.77;4.55;;;;;;;3.28;50.61;102065.81;5042505;28;20111;-39
2024/01/07 08:07:00;;;;;;;8.60;3.80;;;;;;;3.48;50.10;102076.94;5035026;28;20503;-39
2024/01/07 08:09:26;;;;;;;11.40;4.82;;;;;;;3.59;50.13;102073.44;5044577;28;20041;-39
2024/01/07 08:11:51;;;;;;;12.35;6.10;;;;;;;3.61;50.01;102069.94;5039812;28;20055;-39
2024/01/07 08:14:16;;;;;;;15.45;6.07;;;;;;;3.69;49.91;102071.63;5044066;28;20033;-39
2024/01/07 08:16:42;;;;;;;10.50;4.95;;;;;;;3.71;50.30;102069.84;5041659;28;20056;-39
2024/01/07 08:19:07;;;;;;;12.77;4.93;;;;;;;3.83;49.95;102080.19;5020178;28;20121;-38
2024/01/07 08:21:32;;;;;;;13.63;5.10;;;;;;;3.88;50.46;102091.41;5030506;28;20048;-39
2024/01/07 08:23:58;;;;;;;11.90;4.80;;;;;;;3.92;50.32;102079.25;5034962;28;21023;-39
2024/01/07 08:26:24;;;;;;;8.35;3.97;;;;;;;3.78;50.14;102075.00;5040220;28;20139;-39
2024/01/07 08:28:49;;;;;;;8.05;5.00;;;;;;;3.84;50.06;102079.31;5022835;28;20048;-39
2024/01/07 08:31:14;;;;;;;12.02;4.68;;;;;;;3.87;49.86;102079.28;5038253;28;20587;-39
2024/01/07 08:33:40;;;;;;;7.80;3.88;;;;;;;3.61;49.95;102080.34;5023768;28;20116;-39
2024/01/07 08:36:05;;;;;;;8.32;4.03;;;;;;;3.55;50.18;102074.31;5023767;28;20075;-39
2024/01/07 08:38:31;;;;;;;13.48;4.15;;;;;;;3.53;50.33;102079.56;5037278;28;20082;-39
2024/01/07 08:40:56;;;;;;;8.45;4.32;;;;;;;3.59;50.15;102076.88;5044438;28;20127;-39
2024/01/07 08:43:22;;;;;;;6.07;3.28;;;;;;;3.55;50.18;102075.19;5045825;28;20082;-39
2024/01/07 08:45:51;;;;;;;6.45;1.92;;;;;;;3.35;51.81;102078.78;5043016;28;20044;-40
2024/01/07 08:48:17;;;;;;;2.25;1.13;;;;;;;3.45;51.03;102066.59;5047175;28;20048;-39
2024/01/07 08:50:42;;;;;;;5.43;3.22;;;;;;;3.44;51.07;102072.66;5044816;28;20064;-39
2024/01/07 08:53:08;;;;;;;12.20;4.25;;;;;;;3.26;51.92;102071.03;5039525;28;20057;-39
2024/01/07 08:55:33;;;;;;;7.35;3.47;;;;;;;3.15;51.86;102072.81;5048787;28;20480;-39
2024/01/07 08:57:59;;;;;;;12.10;3.35;;;;;;;2.99;52.48;102072.06;5044470;28;20088;-39
2024/01/07 09:00:26;;;;;;;6.15;3.58;;;;;;;2.80;53.00;102077.31;5043446;28;20036;-39
2024/01/07 09:02:55;;;;;;;9.18;3.55;;;;;;;2.98;52.87;102078.97;5040646;28;20064;-39
2024/01/07 09:05:20;;;;;;;5.97;2.67;;;;;;;2.93;52.71;102067.75;5047422;28;20032;-39
2024/01/07 09:07:45;;;;;;;16.60;8.07;;;;;;;3.04;52.86;102067.66;5047447;28;20037;-38
2024/01/07 09:10:12;;;;;;;18.23;6.82;;;;;;;2.95;54.39;102068.56;5042864;28;20030;-39
2024/01/07 09:12:38;;;;;;;7.57;3.78;;;;;;;2.97;53.41;102066.00;5044744;28;20031;-39
2024/01/07 09:15:07;;;;;;;6.18;2.25;;;;;;;2.84;53.31;102066.03;5042923;28;20028;-39
2024/01/07 09:17:34;;;;;;;6.90;2.95;;;;;;;2.79;53.09;102069.53;5043781;28;20032;-38
2024/01/07 09:20:00;;;;;;;5.95;2.95;;;;;;;3.08;52.99;102079.78;5036670;28;20495;-39
2024/01/07 09:22:25;;;;;;;6.53;3.40;;;;;;;3.01;53.06;102078.97;5035885;28;20040;-39
2024/01/07 09:24:50;;;;;;;8.68;2.50;;;;;;;3.27;52.83;102080.56;5038493;28;20384;-39
2024/01/07 09:27:16;;;;;;;9.13;3.03;;;;;;;3.55;52.49;102083.00;5028730;28;20032;-39
2024/01/07 09:29:41;;;;;;;7.95;3.67;;;;;;;3.73;52.14;102086.34;5026463;28;20070;-39
2024/01/07 09:32:07;;;;;;;8.32;4.00;;;;;;;3.86;52.10;102087.97;5040881;28;20067;-39
2024/01/07 09:34:32;;;;;;;18.70;7.03;;;;;;;3.85;52.26;102091.47;5044251;28;20241;-39
2024/01/07 09:36:57;;;;;;;9.23;3.78;;;;;;;3.98;52.04;102102.63;5040374;28;20540;-39
2024/01/07 09:39:23;;;;;;;6.28;3.13;;;;;;;4.10;52.41;102104.28;5044022;28;20060;-40
2024/01/07 09:41:48;;;;;;;6.85;3.20;;;;;;;4.20;52.14;102110.28;5029426;28;20047;-40
2024/01/07 09:44:14;;;;;;;10.32;4.88;;;;;;;4.30;52.32;102111.91;5038290;28;20044;-39
2024/01/07 09:46:41;;;;;;;8.98;4.07;;;;;;;4.37;52.26;102107.50;5040377;28;20033;-40
2024/01/07 09:49:07;;;;;;;11.98;4.72;;;;;;;4.37;52.26;102099.69;5044789;28;20033;-41
2024/01/07 09:51:37;;;;;;;8.93;3.97;;;;;;;4.53;52.26;102092.59;5045351;28;20039;-40
2024/01/07 09:54:04;;;;;;;7.18;4.13;;;;;;;4.56;51.86;102092.53;5045825;28;20376;-40
2024/01/07 09:56:38;;;;;;;9.20;3.88;;;;;;;4.70;51.83;102095.00;5044284;28;20036;-40
2024/01/07 09:59:04;;;;;;;9.27;3.65;;;;;;;4.71;51.87;102086.28;5042691;28;20766;-40
2024/01/07 10:01:31;;;;;;;9.23;3.95;;;;;;;4.78;52.25;102085.31;5043515;28;20032;-40
2024/01/07 10:03:56;;;;;;;6.95;3.95;;;;;;;4.78;52.50;102087.09;5044543;28;20029;-41
2024/01/07 10:06:22;;;;;;;10.60;3.78;;;;;;;4.80;51.86;102080.94;5031272;28;20033;-40
2024/01/07 10:08:47;;;;;;;6.90;4.05;;;;;;;4.77;52.66;102080.13;5044901;28;20028;-40
2024/01/07 10:11:16;;;;;;;13.25;5.10;;;;;;;4.83;51.96;102072.25;5043940;28;20064;-41
2024/01/07 10:13:41;;;;;;;23.67;11.60;;;;;;;4.77;51.99;102075.78;5026843;28;20482;-41
2024/01/07 10:16:08;;;;;;;18.30;6.60;;;;;;;4.71;52.15;102068.03;5035615;28;20037;-40
2024/01/07 10:18:34;;;;;;;16.58;5.72;;;;;;;4.74;52.68;102068.00;5040264;28;20021;-41
2024/01/07 10:21:05;;;;;;;9.77;4.80;;;;;;;4.44;51.10;102072.69;5046698;28;20039;-41
2024/01/07 10:23:31;;;;;;;11.88;4.85;;;;;;;4.63;52.47;102075.06;5044067;28;20466;-40
2024/01/07 10:25:57;;;;;;;10.63;4.35;;;;;;;4.71;52.73;102078.47;5040982;28;20076;-40
2024/01/07 10:28:23;;;;;;;8.05;3.97;;;;;;;4.76;52.53;102084.50;5045369;28;20047;-42
2024/01/07 10:30:50;;;;;;;8.95;3.75;;;;;;;4.82;52.24;102084.41;5029410;28;20029;-40
2024/01/07 10:33:17;;;;;;;8.30;4.75;;;;;;;4.89;52.09;102085.19;5038753;28;20092;-41
2024/01/07 10:35:51;;;;;;;12.20;3.83;;;;;;;4.92;52.44;102087.78;5041419;28;20047;-40
2024/01/07 10:38:16;;;;;;;9.63;4.57;;;;;;;4.83;52.59;102091.34;5038347;28;20138;-41
2024/01/07 10:40:45;;;;;;;24.67;11.50;;;;;;;4.88;52.50;102089.56;5027030;28;20788;-41
2024/01/07 10:43:12;;;;;;;29.58;12.32;;;;;;;4.88;52.34;102096.50;5045900;28;20043;-40
2024/01/07 10:45:38;;;;;;;19.52;9.15;;;;;;;4.95;52.28;102099.91;5042822;28;20048;-40
2024/01/07 10:48:07;;;;;;;12.40;6.03;;;;;;;5.00;52.31;102095.50;5044792;28;20026;-40
2024/01/07 10:50:33;;;;;;;8.23;4.07;;;;;;;5.03;51.99;102101.53;5042340;28;20025;-40
2024/01/07 10:53:05;;;;;;;8.32;4.10;;;;;;;5.12;52.00;102102.31;5042507;28;20107;-40
2024/01/07 10:55:35;;;;;;;8.70;3.53;;;;;;;5.13;51.99;102094.47;5046289;28;20120;-40
2024/01/07 10:58:02;;;;;;;5.93;3.10;;;;;;;5.12;51.88;102091.88;5042290;28;20384;-40
2024/01/07 11:00:29;;;;;;;5.05;2.30;;;;;;;5.03;51.67;102090.25;5045243;28;20061;-40
2024/01/07 11:02:57;;;;;;;5.30;3.15;;;;;;;4.79;51.38;102092.25;5042020;28;20056;-40
2024/01/07 11:05:48;;;;;;;7.85;3.55;;;;;;;4.98;52.14;102085.09;5040133;28;20074;-39
2024/01/07 11:08:22;;;;;;;8.70;3.08;;;;;;;5.08;51.87;102090.19;5044932;28;20440;-40
2024/01/07 11:10:53;;;;;;;4.20;2.80;;;;;;;4.87;51.23;102087.84;5043538;28;20036;-40
2024/01/07 11:13:38;;;;;;;6.63;3.03;;;;;;;4.95;52.19;102087.75;5045979;28;20029;-41
2024/01/07 11:16:12;;;;;;;10.02;4.18;;;;;;;5.04;51.95;102089.38;5045496;28;20033;-40
2024/01/07 11:18:51;;;;;;;5.05;2.90;;;;;;;4.77;51.52;102091.41;5048229;28;20029;-40
2024/01/07 11:21:26;;;;;;;4.88;2.38;;;;;;;4.90;52.28;102086.06;5040430;28;20036;-40
2024/01/07 11:23:52;;;;;;;5.93;2.80;;;;;;;4.87;52.25;102097.38;5035984;28;20036;-40
2024/01/07 11:26:20;;;;;;;5.57;2.83;;;;;;;4.88;52.01;102089.56;5042456;28;20024;-40